map of STC home
STC - Airport
Location
City:  St. Cloud, Minnesota, United States
Name:St. Cloud Regional
ICAO:KSTC
IATA:STC
FAA LID:STC

Details
Type:Airport (Part 139 Class I)
Use:Public/Civil
Latitude:4532'46"N (45.546222)
Longitude:9403'34"W (-94.059388)
Datum:WGS 1984
Elevation:1030 ft (314 m)
Variation:0.77E (WMM2015 magnetic declination)
-0.07 annual change
Runways:2
Longest:7500 × 150 ft (2286 × 45.5 m), paved

Time
Time Zone:UTC-6 (DST-5)
Local Time:

Weather
METAR:KSTC 241353Z 07010KT 10SM OVC090 17/12 A2992 RMK AO2 SLP138 T01670122
TAF:KSTC 241125Z 2412/2512 08005KT P6SM SCT050 BKN100
FM242200 08008KT P6SM VCSH BKN045 OVC090
FM250300 07006KT P6SM OVC080

Related Locations
Nearby:
Farthest:YAUG: 10719 mi / 17250 km
Augusta [Augusta Airport], WA, AU

Find:

   beyond  
but within

Other Information
Maps:
NOTAMs:
Links:
Sources:

  
  • flag of United States
  • flag of Minnesota
  

Airport Diagram

Airport diagram for STC

Airport diagram PDF

Sectional Chart

Flight Planning
at skyvector.com

Satellite Image

Google Maps Satellite view

 

Copyright © 2004-2018 Karl L. Swartz. All rights reserved.
The Great Circle Mapper name and logo are trademarks of the Great Circle Mapper.
All other trademarks mentioned herein belong to their respective owners.
Please see credits for attibutions and further copyright information.

  Follow gcmap on Facebook Follow gcmap on Twitter Follow gcmap on Google+ GCmap on LinkedIn

hCard Microformat

Geo Microformat